sensor_id;sensor_type;location;lat;lon;timestamp;temperature;humidity
25214;DHT22;13160;51.834;4.706;2024-03-23T00:54:21;9.00;99.90
25214;DHT22;13160;51.834;4.706;2024-03-23T00:57:26;9.00;99.90
25214;DHT22;13160;51.834;4.706;2024-03-23T01:00:34;8.90;99.90
25214;DHT22;13160;51.834;4.706;2024-03-23T01:03:59;9.00;99.90
25214;DHT22;13160;51.834;4.706;2024-03-23T01:11:13;8.90;99.90
25214;DHT22;13160;51.834;4.706;2024-03-23T01:14:20;8.90;99.90
25214;DHT22;13160;51.834;4.706;2024-03-23T01:17:58;9.00;99.90
25214;DHT22;13160;51.834;4.706;2024-03-23T07:01:12;7.50;99.90
25214;DHT22;13160;51.834;4.706;2024-03-23T07:04:07;7.50;99.90
25214;DHT22;13160;51.834;4.706;2024-03-23T07:45:35;8.30;99.90
25214;DHT22;13160;51.834;4.706;2024-03-23T07:48:41;8.40;99.90
25214;DHT22;13160;51.834;4.706;2024-03-23T07:51:36;8.60;99.90
25214;DHT22;13160;51.834;4.706;2024-03-23T08:02:20;8.80;99.90
25214;DHT22;13160;51.834;4.706;2024-03-23T08:04:59;8.80;99.90
25214;DHT22;13160;51.834;4.706;2024-03-23T08:10:53;8.90;99.90
25214;DHT22;13160;51.834;4.706;2024-03-23T08:25:30;9.30;99.90
25214;DHT22;13160;51.834;4.706;2024-03-23T08:28:05;9.60;99.90
25214;DHT22;13160;51.834;4.706;2024-03-23T08:42:44;10.10;99.90
25214;DHT22;13160;51.834;4.706;2024-03-23T08:55:43;10.00;99.90
25214;DHT22;13160;51.834;4.706;2024-03-23T09:50:10;10.20;99.90
25214;DHT22;13160;51.834;4.706;2024-03-23T09:52:38;10.10;99.90
25214;DHT22;13160;51.834;4.706;2024-03-23T09:55:06;10.10;99.90
25214;DHT22;13160;51.834;4.706;2024-03-23T09:57:37;10.20;99.90
25214;DHT22;13160;51.834;4.706;2024-03-23T10:00:33;10.20;99.90
25214;DHT22;13160;51.834;4.706;2024-03-23T10:03:01;10.30;99.90
25214;DHT22;13160;51.834;4.706;2024-03-23T10:05:30;10.40;99.90
25214;DHT22;13160;51.834;4.706;2024-03-23T10:08:00;10.40;99.90
25214;DHT22;13160;51.834;4.706;2024-03-23T10:10:26;10.40;99.90
25214;DHT22;13160;51.834;4.706;2024-03-23T10:12:54;10.40;99.90
25214;DHT22;13160;51.834;4.706;2024-03-23T10:15:22;10.40;99.90
25214;DHT22;13160;51.834;4.706;2024-03-23T10:17:51;10.40;99.90
25214;DHT22;13160;51.834;4.706;2024-03-23T10:20:20;10.50;99.90
25214;DHT22;13160;51.834;4.706;2024-03-23T10:22:50;10.60;99.90
25214;DHT22;13160;51.834;4.706;2024-03-23T10:25:17;10.70;99.90
25214;DHT22;13160;51.834;4.706;2024-03-23T10:27:58;10.80;99.90
25214;DHT22;13160;51.834;4.706;2024-03-23T10:30:25;10.90;99.90
25214;DHT22;13160;51.834;4.706;2024-03-23T10:33:07;10.90;99.90
25214;DHT22;13160;51.834;4.706;2024-03-23T10:35:34;10.90;99.90
25214;DHT22;13160;51.834;4.706;2024-03-23T10:38:05;10.90;99.90
25214;DHT22;13160;51.834;4.706;2024-03-23T10:40:34;10.90;99.90
25214;DHT22;13160;51.834;4.706;2024-03-23T10:43:03;10.90;99.90
25214;DHT22;13160;51.834;4.706;2024-03-23T10:45:30;10.80;99.90
25214;DHT22;13160;51.834;4.706;2024-03-23T10:47:57;10.80;99.90
25214;DHT22;13160;51.834;4.706;2024-03-23T10:50:24;10.80;99.90
25214;DHT22;13160;51.834;4.706;2024-03-23T10:52:53;10.90;99.90
25214;DHT22;13160;51.834;4.706;2024-03-23T10:55:26;10.80;99.90
25214;DHT22;13160;51.834;4.706;2024-03-23T11:00:31;10.80;99.90
25214;DHT22;13160;51.834;4.706;2024-03-23T11:18:10;10.60;99.90
25214;DHT22;13160;51.834;4.706;2024-03-23T11:20:55;10.70;99.90
25214;DHT22;13160;51.834;4.706;2024-03-23T12:01:50;11.10;99.90
25214;DHT22;13160;51.834;4.706;2024-03-23T12:07:09;11.20;99.90
25214;DHT22;13160;51.834;4.706;2024-03-23T12:26:30;10.70;99.90
25214;DHT22;13160;51.834;4.706;2024-03-23T12:29:05;10.70;99.90
25214;DHT22;13160;51.834;4.706;2024-03-23T12:31:37;10.70;99.90
25214;DHT22;13160;51.834;4.706;2024-03-23T12:34:31;10.60;99.90
25214;DHT22;13160;51.834;4.706;2024-03-23T12:37:11;10.50;99.90
25214;DHT22;13160;51.834;4.706;2024-03-23T12:40:20;10.50;99.90
25214;DHT22;13160;51.834;4.706;2024-03-23T13:04:22;10.10;99.90
25214;DHT22;13160;51.834;4.706;2024-03-23T14:12:49;9.80;99.90
25214;DHT22;13160;51.834;4.706;2024-03-23T14:15:47;9.60;99.90
25214;DHT22;13160;51.834;4.706;2024-03-23T14:18:30;9.30;99.90
25214;DHT22;13160;51.834;4.706;2024-03-23T14:21:08;9.00;99.90
25214;DHT22;13160;51.834;4.706;2024-03-23T14:23:37;8.80;99.90
25214;DHT22;13160;51.834;4.706;2024-03-23T14:26:09;8.80;99.90
25214;DHT22;13160;51.834;4.706;2024-03-23T14:28:56;8.80;99.90
25214;DHT22;13160;51.834;4.706;2024-03-23T14:31:39;8.80;99.90
25214;DHT22;13160;51.834;4.706;2024-03-23T14:41:24;8.90;99.90
25214;DHT22;13160;51.834;4.706;2024-03-23T16:33:19;9.10;99.90
25214;DHT22;13160;51.834;4.706;2024-03-23T16:36:07;9.10;99.90
25214;DHT22;13160;51.834;4.706;2024-03-23T16:39:09;9.00;99.90
25214;DHT22;13160;51.834;4.706;2024-03-23T16:41:42;9.10;99.90
25214;DHT22;13160;51.834;4.706;2024-03-23T16:44:35;9.00;99.90
25214;DHT22;13160;51.834;4.706;2024-03-23T16:51:50;8.80;99.90
25214;DHT22;13160;51.834;4.706;2024-03-23T16:54:53;8.90;99.90
25214;DHT22;13160;51.834;4.706;2024-03-23T16:58:04;8.90;99.90
25214;DHT22;13160;51.834;4.706;2024-03-23T17:01:02;8.90;99.90
25214;DHT22;13160;51.834;4.706;2024-03-23T17:25:08;8.80;99.90
25214;DHT22;13160;51.834;4.706;2024-03-23T17:27:36;8.80;99.90
25214;DHT22;13160;51.834;4.706;2024-03-23T17:30:03;8.80;99.90
25214;DHT22;13160;51.834;4.706;2024-03-23T17:32:31;8.80;99.90
25214;DHT22;13160;51.834;4.706;2024-03-23T17:35:11;8.80;99.90
25214;DHT22;13160;51.834;4.706;2024-03-23T17:37:53;8.70;99.90
25214;DHT22;13160;51.834;4.706;2024-03-23T17:40:22;8.80;99.90
25214;DHT22;13160;51.834;4.706;2024-03-23T17:42:51;8.70;99.90
25214;DHT22;13160;51.834;4.706;2024-03-23T17:45:20;8.70;99.90
25214;DHT22;13160;51.834;4.706;2024-03-23T17:47:51;8.70;99.90
25214;DHT22;13160;51.834;4.706;2024-03-23T17:50:26;8.70;99.90
25214;DHT22;13160;51.834;4.706;2024-03-23T17:52:54;8.70;99.90
25214;DHT22;13160;51.834;4.706;2024-03-23T17:55:27;8.70;99.90
25214;DHT22;13160;51.834;4.706;2024-03-23T17:58:00;8.70;99.90
25214;DHT22;13160;51.834;4.706;2024-03-23T18:46:52;8.20;99.90
25214;DHT22;13160;51.834;4.706;2024-03-23T18:50:15;8.20;99.90
25214;DHT22;13160;51.834;4.706;2024-03-23T18:52:48;8.20;99.90
25214;DHT22;13160;51.834;4.706;2024-03-23T18:55:52;8.20;99.90
25214;DHT22;13160;51.834;4.706;2024-03-23T19:31:05;8.10;99.90
25214;DHT22;13160;51.834;4.706;2024-03-23T19:41:24;7.90;99.90
25214;DHT22;13160;51.834;4.706;2024-03-23T19:43:52;7.90;99.90
25214;DHT22;13160;51.834;4.706;2024-03-23T19:46:20;8.00;99.90
25214;DHT22;13160;51.834;4.706;2024-03-23T19:48:49;7.90;99.90
25214;DHT22;13160;51.834;4.706;2024-03-23T19:51:21;7.90;99.90
25214;DHT22;13160;51.834;4.706;2024-03-23T19:54:16;8.00;99.90
25214;DHT22;13160;51.834;4.706;2024-03-23T19:56:57;7.90;99.90
25214;DHT22;13160;51.834;4.706;2024-03-23T19:59:43;7.90;99.90
25214;DHT22;13160;51.834;4.706;2024-03-23T20:44:44;7.50;99.90
25214;DHT22;13160;51.834;4.706;2024-03-23T20:51:14;7.50;99.90
25214;DHT22;13160;51.834;4.706;2024-03-23T23:31:17;7.10;99.90
25214;DHT22;13160;51.834;4.706;2024-03-23T23:33:52;7.20;99.90
25214;DHT22;13160;51.834;4.706;2024-03-23T23:36:24;7.20;99.90
25214;DHT22;13160;51.834;4.706;2024-03-23T23:39:12;7.20;99.90
25214;DHT22;13160;51.834;4.706;2024-03-23T23:41:56;7.20;99.90
25214;DHT22;13160;51.834;4.706;2024-03-23T23:48:44;7.20;99.90
25214;DHT22;13160;51.834;4.706;2024-03-23T23:56:45;7.30;99.90
